createdAt,value
2018-04-18T00:01:37.704Z,35.95
2018-04-18T00:04:04.580Z,35.79
2018-04-18T00:06:31.420Z,35.74
2018-04-18T00:09:00.315Z,35.81
2018-04-18T00:11:27.261Z,35.72
2018-04-18T00:13:54.057Z,35.73
2018-04-18T00:16:20.904Z,35.63
2018-04-18T00:18:47.779Z,35.59
2018-04-18T00:21:14.690Z,35.62
2018-04-18T00:23:41.575Z,35.67
2018-04-18T00:26:08.408Z,35.54
2018-04-18T00:28:35.463Z,35.53
2018-04-18T00:31:02.444Z,35.56
2018-04-18T00:33:29.250Z,35.42
2018-04-18T00:35:56.299Z,35.40
2018-04-18T00:38:23.202Z,35.38
2018-04-18T00:40:50.177Z,35.32
2018-04-18T00:43:17.370Z,35.30
2018-04-18T00:45:44.168Z,35.17
2018-04-18T00:48:10.983Z,35.33
2018-04-18T00:50:37.826Z,35.25
2018-04-18T00:53:05.251Z,35.24
2018-04-18T00:55:32.127Z,35.16
2018-04-18T00:58:00.163Z,35.10
2018-04-18T01:00:27.519Z,35.05
2018-04-18T01:02:54.628Z,35.00
2018-04-18T01:05:21.436Z,35.00
2018-04-18T01:07:48.283Z,35.02
2018-04-18T01:10:15.222Z,34.96
2018-04-18T01:12:42.165Z,34.99
2018-04-18T01:15:12.422Z,34.91
2018-04-18T01:17:39.365Z,34.86
2018-04-18T01:20:06.277Z,34.86
2018-04-18T01:22:33.561Z,34.83
2018-04-18T01:25:00.475Z,34.79
2018-04-18T01:27:30.162Z,34.83
2018-04-18T01:29:57.218Z,34.81
2018-04-18T01:32:25.887Z,34.73
2018-04-18T01:34:53.027Z,34.76
2018-04-18T01:37:24.886Z,34.76
2018-04-18T01:39:50.349Z,34.71
2018-04-18T01:42:17.477Z,34.73
2018-04-18T01:44:44.221Z,34.69
2018-04-18T01:47:11.064Z,34.66
2018-04-18T01:49:37.912Z,34.66
2018-04-18T01:52:04.893Z,34.68
2018-04-18T01:54:31.740Z,34.61
2018-04-18T01:56:58.572Z,34.72
2018-04-18T01:59:25.448Z,34.58
2018-04-18T02:01:52.320Z,34.68
2018-04-18T02:04:22.237Z,34.76
2018-04-18T02:06:49.178Z,34.69
2018-04-18T02:09:19.570Z,34.64
2018-04-18T02:11:46.448Z,34.66
2018-04-18T02:14:13.395Z,34.68
2018-04-18T02:16:40.240Z,34.69
2018-04-18T02:19:07.121Z,34.71
2018-04-18T02:21:33.920Z,34.66
2018-04-18T02:24:00.799Z,34.69
2018-04-18T02:26:27.745Z,34.72
2018-04-18T02:28:54.990Z,34.67
2018-04-18T02:31:21.799Z,34.66
2018-04-18T02:33:48.747Z,34.66
2018-04-18T02:36:15.686Z,34.61
2018-04-18T02:38:42.635Z,34.60
2018-04-18T02:41:09.472Z,34.67
2018-04-18T02:43:36.349Z,34.61
2018-04-18T02:46:03.259Z,34.67
2018-04-18T02:48:30.135Z,34.67
2018-04-18T02:50:56.945Z,34.67
2018-04-18T02:53:23.891Z,34.61
2018-04-18T02:55:50.766Z,34.60
2018-04-18T02:58:17.582Z,34.62
2018-04-18T03:00:44.449Z,34.61
2018-04-18T03:03:11.265Z,34.58
2018-04-18T03:05:38.594Z,34.65
2018-04-18T03:08:06.355Z,34.65
2018-04-18T03:10:34.620Z,34.66
2018-04-18T03:13:01.420Z,34.71
2018-04-18T03:15:28.233Z,34.62
2018-04-18T03:17:55.072Z,34.66
2018-04-18T03:20:21.957Z,34.67
2018-04-18T03:22:48.761Z,34.66
2018-04-18T03:25:15.633Z,34.68
2018-04-18T03:27:42.447Z,34.64
2018-04-18T03:30:09.283Z,34.65
2018-04-18T03:32:36.172Z,34.65
2018-04-18T03:35:06.046Z,34.68
2018-04-18T03:37:32.885Z,34.62
2018-04-18T03:39:59.764Z,34.57
2018-04-18T03:42:26.573Z,34.59
2018-04-18T03:44:53.410Z,34.55
2018-04-18T03:47:20.256Z,34.56
2018-04-18T03:49:47.134Z,34.59
2018-04-18T03:52:13.936Z,34.56
2018-04-18T03:54:40.812Z,34.59
2018-04-18T03:57:07.619Z,34.49
2018-04-18T03:59:34.569Z,34.56
2018-04-18T04:02:01.214Z,34.57
2018-04-18T04:04:27.860Z,34.55
2018-04-18T04:06:54.490Z,34.35
2018-04-18T04:09:21.093Z,34.40
2018-04-18T04:11:47.764Z,34.55
2018-04-18T04:14:14.447Z,34.52
2018-04-18T04:16:41.003Z,34.57
2018-04-18T04:19:07.671Z,34.61
2018-04-18T04:21:34.280Z,34.23
2018-04-18T04:24:00.943Z,34.07
2018-04-18T04:26:27.639Z,34.14
2018-04-18T04:28:54.272Z,34.22
2018-04-18T04:31:20.872Z,34.03
2018-04-18T04:33:47.547Z,33.94
2018-04-18T04:36:14.150Z,33.80
2018-04-18T04:38:40.814Z,33.64
2018-04-18T04:41:07.435Z,33.74
2018-04-18T04:43:34.093Z,33.72
2018-04-18T04:46:00.697Z,33.73
2018-04-18T04:48:27.373Z,33.80
2018-04-18T04:50:54.044Z,33.90
2018-04-18T04:53:20.678Z,33.95
2018-04-18T04:55:47.309Z,33.94
2018-04-18T04:58:13.951Z,33.97
2018-04-18T05:00:40.557Z,34.00
2018-04-18T05:03:07.191Z,33.77
2018-04-18T05:05:33.879Z,33.81
2018-04-18T05:08:00.478Z,33.91
2018-04-18T05:10:27.128Z,33.98
2018-04-18T05:12:53.762Z,34.04
2018-04-18T05:15:20.400Z,34.07
2018-04-18T05:17:47.076Z,34.00
2018-04-18T05:20:13.676Z,33.72
2018-04-18T05:22:40.359Z,33.94
2018-04-18T05:25:07.049Z,34.05
2018-04-18T05:27:33.727Z,34.22
2018-04-18T05:30:00.351Z,34.68
2018-04-18T05:32:27.024Z,33.74
2018-04-18T05:34:53.655Z,33.75
2018-04-18T05:37:20.303Z,33.83
2018-04-18T05:39:46.939Z,33.71
2018-04-18T05:42:13.615Z,33.67
2018-04-18T05:44:40.230Z,33.94
2018-04-18T05:47:06.868Z,34.20
2018-04-18T05:49:33.513Z,34.51
2018-04-18T05:52:00.146Z,33.61
2018-04-18T05:54:26.895Z,33.86
2018-04-18T05:56:53.583Z,34.07
2018-04-18T05:59:20.204Z,34.00
2018-04-18T06:01:46.838Z,34.04
2018-04-18T06:04:13.473Z,34.19
2018-04-18T06:06:40.101Z,34.20
2018-04-18T06:09:06.760Z,34.00
2018-04-18T06:11:33.402Z,34.65
2018-04-18T06:14:00.039Z,34.75
2018-04-18T06:16:26.675Z,34.66
2018-04-18T06:18:53.323Z,34.56
2018-04-18T06:21:20.099Z,34.59
2018-04-18T06:23:46.742Z,34.18
2018-04-18T06:26:13.369Z,34.18
2018-04-18T06:28:40.006Z,34.35
2018-04-18T06:31:06.610Z,34.25
2018-04-18T06:33:33.284Z,34.30
2018-04-18T06:35:59.944Z,34.43
2018-04-18T06:38:26.560Z,34.21
2018-04-18T06:40:55.823Z,34.51
2018-04-18T06:43:22.469Z,34.41
2018-04-18T06:45:49.138Z,34.53
2018-04-18T06:48:16.289Z,34.48
2018-04-18T06:50:42.922Z,34.45
2018-04-18T06:53:09.589Z,34.49
2018-04-18T06:55:36.226Z,34.47
2018-04-18T06:58:02.863Z,34.22
2018-04-18T07:00:29.520Z,34.47
2018-04-18T07:02:56.187Z,34.47
2018-04-18T07:05:22.820Z,34.23
2018-04-18T07:07:49.412Z,34.10
2018-04-18T07:10:16.090Z,34.13
2018-04-18T07:12:42.773Z,34.35
2018-04-18T07:15:09.414Z,34.16
2018-04-18T07:17:36.100Z,33.93
2018-04-18T07:20:02.708Z,33.79
2018-04-18T07:22:29.353Z,33.76
2018-04-18T07:24:56.202Z,33.87
2018-04-18T07:27:22.855Z,34.13
2018-04-18T07:29:49.466Z,34.01
2018-04-18T07:32:16.136Z,33.98
2018-04-18T07:34:42.741Z,33.83
2018-04-18T07:37:09.389Z,33.90
2018-04-18T07:39:36.041Z,34.17
2018-04-18T07:42:02.783Z,34.10
2018-04-18T07:44:29.419Z,34.10
2018-04-18T07:46:56.044Z,34.16
2018-04-18T07:49:22.770Z,33.97
2018-04-18T07:51:49.403Z,34.01
2018-04-18T07:54:16.072Z,33.90
2018-04-18T07:56:42.716Z,34.04
2018-04-18T07:59:09.315Z,34.16
2018-04-18T08:01:35.974Z,34.07
2018-04-18T08:04:02.633Z,34.10
2018-04-18T08:06:29.267Z,34.09
2018-04-18T08:08:55.946Z,33.79
2018-04-18T08:11:22.576Z,33.68
2018-04-18T08:13:49.219Z,33.89
2018-04-18T08:16:15.886Z,33.66
2018-04-18T08:18:42.491Z,33.79
2018-04-18T08:21:09.196Z,34.35
2018-04-18T08:23:35.840Z,33.43
2018-04-18T08:26:03.530Z,33.80
2018-04-18T08:28:30.192Z,33.87
2018-04-18T08:30:56.847Z,33.78
2018-04-18T08:33:23.513Z,33.98
2018-04-18T08:35:50.157Z,33.87
2018-04-18T08:38:16.938Z,33.79
2018-04-18T08:40:43.581Z,33.67
2018-04-18T08:43:10.270Z,33.80
2018-04-18T08:45:36.903Z,33.61
2018-04-18T08:48:03.501Z,33.62
2018-04-18T08:50:30.167Z,33.85
2018-04-18T08:52:56.832Z,33.42
2018-04-18T08:55:23.488Z,33.43
2018-04-18T08:57:50.146Z,33.53
2018-04-18T09:00:16.789Z,33.50
2018-04-18T09:02:43.423Z,33.35
2018-04-18T09:05:10.104Z,33.20
2018-04-18T09:07:36.749Z,33.21
2018-04-18T09:10:03.409Z,33.29
2018-04-18T09:12:30.072Z,33.39
2018-04-18T09:14:56.683Z,33.12
2018-04-18T09:17:23.311Z,33.29
2018-04-18T09:19:49.992Z,33.06
2018-04-18T09:22:16.599Z,32.66
2018-04-18T09:24:43.273Z,32.84
2018-04-18T09:27:09.885Z,32.71
2018-04-18T09:29:36.552Z,33.07
2018-04-18T09:32:03.205Z,33.02
2018-04-18T09:34:29.852Z,32.70
2018-04-18T09:36:56.511Z,32.81
2018-04-18T09:39:23.209Z,32.70
2018-04-18T09:41:49.847Z,32.82
2018-04-18T09:44:16.578Z,32.88
2018-04-18T09:46:43.149Z,32.88
2018-04-18T09:49:09.820Z,32.82
2018-04-18T09:51:36.467Z,32.72
2018-04-18T09:54:03.072Z,32.65
2018-04-18T09:56:29.711Z,32.42
2018-04-18T09:58:56.349Z,32.33
2018-04-18T10:01:22.998Z,32.34
2018-04-18T10:03:49.650Z,32.49
2018-04-18T10:06:16.294Z,32.48
2018-04-18T10:08:42.980Z,32.47
2018-04-18T10:11:09.637Z,32.66
2018-04-18T10:13:36.277Z,32.47
2018-04-18T10:16:02.980Z,32.35
2018-04-18T10:18:29.643Z,32.59
2018-04-18T10:20:56.765Z,32.35
2018-04-18T10:23:23.374Z,32.17
2018-04-18T10:25:50.057Z,32.54
2018-04-18T10:28:16.668Z,32.43
2018-04-18T10:30:43.397Z,32.37
2018-04-18T10:33:10.009Z,32.46
2018-04-18T10:35:36.689Z,32.04
2018-04-18T10:38:03.328Z,32.38
2018-04-18T10:40:30.005Z,32.29
2018-04-18T10:42:56.668Z,32.15
2018-04-18T10:45:23.277Z,32.38
2018-04-18T10:47:49.944Z,32.36
2018-04-18T10:50:16.582Z,32.40
2018-04-18T10:52:43.180Z,32.22
2018-04-18T10:55:09.824Z,32.53
2018-04-18T10:57:36.455Z,32.53
2018-04-18T11:00:03.240Z,32.43
2018-04-18T11:02:29.906Z,32.54
2018-04-18T11:04:56.507Z,32.43
2018-04-18T11:07:23.154Z,32.47
2018-04-18T11:09:49.846Z,32.57
2018-04-18T11:12:17.564Z,32.36
2018-04-18T11:14:44.240Z,32.61
2018-04-18T11:17:10.888Z,32.44
2018-04-18T11:19:37.699Z,32.24
2018-04-18T11:22:04.351Z,32.49
2018-04-18T11:24:31.002Z,32.41
2018-04-18T11:26:57.719Z,32.35
2018-04-18T11:29:24.293Z,32.43
2018-04-18T11:31:50.929Z,32.36
2018-04-18T11:34:17.572Z,32.41
2018-04-18T11:36:44.222Z,32.45
2018-04-18T11:39:10.930Z,32.60
2018-04-18T11:41:37.567Z,33.07
2018-04-18T11:44:04.238Z,32.98
2018-04-18T11:46:30.891Z,32.99
2018-04-18T11:48:57.495Z,32.86
2018-04-18T11:51:24.162Z,33.15
2018-04-18T11:53:50.825Z,33.02
2018-04-18T11:56:17.512Z,33.12
2018-04-18T11:58:44.120Z,33.08
2018-04-18T12:01:10.835Z,33.25
2018-04-18T12:03:37.485Z,32.84
2018-04-18T12:06:04.135Z,33.33
2018-04-18T12:08:30.774Z,32.61
2018-04-18T12:10:57.444Z,33.05
2018-04-18T12:13:24.084Z,32.92
2018-04-18T12:15:50.736Z,32.45
2018-04-18T12:18:17.336Z,32.65
2018-04-18T12:20:44.197Z,32.59
2018-04-18T12:23:10.757Z,32.46
2018-04-18T12:25:37.397Z,32.47
2018-04-18T12:28:04.030Z,32.43
2018-04-18T12:30:30.720Z,32.35
2018-04-18T12:32:57.359Z,32.31
2018-04-18T12:35:23.968Z,32.02
2018-04-18T12:37:50.646Z,32.16
2018-04-18T12:40:17.288Z,32.49
2018-04-18T12:42:43.936Z,32.22
2018-04-18T12:45:10.640Z,31.87
2018-04-18T12:47:37.236Z,31.90
2018-04-18T12:50:03.895Z,31.97
2018-04-18T12:52:30.571Z,31.90
2018-04-18T12:54:57.202Z,31.68
2018-04-18T12:57:23.830Z,31.70
2018-04-18T12:59:50.553Z,31.87
2018-04-18T13:02:17.189Z,31.58
2018-04-18T13:04:43.813Z,31.68
2018-04-18T13:07:10.468Z,31.67
2018-04-18T13:09:37.102Z,31.58
2018-04-18T13:12:03.756Z,31.68
2018-04-18T13:14:30.433Z,31.80
2018-04-18T13:16:57.075Z,31.77
2018-04-18T13:19:23.711Z,31.93
2018-04-18T13:21:50.405Z,31.64
2018-04-18T13:24:17.042Z,31.77
2018-04-18T13:26:43.696Z,31.69
2018-04-18T13:29:10.383Z,31.64
2018-04-18T13:31:37.028Z,31.50
2018-04-18T13:34:03.638Z,31.37
2018-04-18T13:36:30.688Z,31.51
2018-04-18T13:38:57.342Z,31.35
2018-04-18T13:41:23.963Z,31.44
2018-04-18T13:43:50.664Z,31.58
2018-04-18T13:46:17.660Z,31.57
2018-04-18T13:48:44.375Z,31.75
2018-04-18T13:51:11.043Z,31.72
2018-04-18T13:53:37.676Z,31.46
2018-04-18T13:56:04.355Z,31.68
2018-04-18T13:58:30.992Z,31.78
2018-04-18T14:00:57.623Z,31.84
2018-04-18T14:03:24.286Z,31.70
2018-04-18T14:05:50.919Z,31.82
2018-04-18T14:08:17.563Z,31.73
2018-04-18T14:10:44.290Z,31.75
2018-04-18T14:13:10.936Z,32.02
2018-04-18T14:15:37.879Z,32.11
2018-04-18T14:18:04.564Z,31.85
2018-04-18T14:20:31.226Z,31.72
2018-04-18T14:22:57.832Z,31.84
2018-04-18T14:25:24.481Z,31.54
2018-04-18T14:27:51.120Z,31.53
2018-04-18T14:30:17.828Z,31.44
2018-04-18T14:32:44.489Z,31.33
2018-04-18T14:35:11.102Z,31.53
2018-04-18T14:37:37.740Z,31.64
2018-04-18T14:40:04.417Z,31.17
2018-04-18T14:42:31.014Z,31.62
2018-04-18T14:44:57.681Z,31.45
2018-04-18T14:47:24.356Z,31.40
2018-04-18T14:49:50.995Z,31.56
2018-04-18T14:52:17.667Z,31.04
2018-04-18T14:54:44.261Z,30.76
2018-04-18T14:57:10.907Z,30.97
2018-04-18T14:59:37.588Z,30.90
2018-04-18T15:02:05.438Z,30.98
2018-04-18T15:04:30.866Z,31.06
2018-04-18T15:06:57.512Z,30.80
2018-04-18T15:09:24.174Z,31.00
2018-04-18T15:11:50.815Z,30.92
2018-04-18T15:14:17.482Z,30.84
2018-04-18T15:16:44.119Z,30.88
2018-04-18T15:19:10.760Z,31.27
2018-04-18T15:21:37.442Z,31.34
2018-04-18T15:24:04.031Z,30.92
2018-04-18T15:26:30.719Z,31.26
2018-04-18T15:28:57.351Z,31.22
2018-04-18T15:31:24.001Z,31.40
2018-04-18T15:33:50.636Z,31.43
2018-04-18T15:36:17.278Z,31.28
2018-04-18T15:38:43.910Z,31.25
2018-04-18T15:41:10.618Z,31.54
2018-04-18T15:43:37.262Z,31.27
2018-04-18T15:46:03.863Z,31.45
2018-04-18T15:48:30.544Z,31.46
2018-04-18T15:50:57.181Z,31.69
2018-04-18T15:53:23.831Z,31.62
2018-04-18T15:55:50.548Z,31.74
2018-04-18T15:58:17.152Z,31.66
2018-04-18T16:00:43.811Z,31.70
2018-04-18T16:03:10.429Z,31.73
2018-04-18T16:05:37.110Z,31.82
2018-04-18T16:08:03.749Z,31.96
2018-04-18T16:10:30.416Z,31.78
2018-04-18T16:12:57.026Z,32.14
2018-04-18T16:15:23.690Z,32.25
2018-04-18T16:17:50.342Z,32.18
2018-04-18T16:20:17.035Z,32.13
2018-04-18T16:22:43.709Z,32.12
2018-04-18T16:25:10.345Z,32.06
2018-04-18T16:27:36.978Z,32.11
2018-04-18T16:30:03.656Z,32.14
2018-04-18T16:32:30.365Z,32.30
2018-04-18T16:34:56.927Z,32.46
2018-04-18T16:37:23.572Z,32.44
2018-04-18T16:39:50.199Z,32.57
2018-04-18T16:42:16.815Z,32.57
2018-04-18T16:44:43.471Z,32.51
2018-04-18T16:47:10.080Z,32.54
2018-04-18T16:49:36.755Z,32.53
2018-04-18T16:52:03.350Z,32.48
2018-04-18T16:54:30.022Z,32.57
2018-04-18T16:56:56.681Z,32.64
2018-04-18T16:59:23.293Z,32.60
2018-04-18T17:01:49.929Z,32.62
2018-04-18T17:04:16.567Z,32.62
2018-04-18T17:06:43.275Z,32.60
2018-04-18T17:09:09.844Z,32.50
2018-04-18T17:11:36.492Z,32.55
2018-04-18T17:14:03.134Z,32.69
2018-04-18T17:16:29.835Z,32.62
2018-04-18T17:18:56.497Z,32.68
2018-04-18T17:21:23.134Z,32.77
2018-04-18T17:23:49.787Z,32.86
2018-04-18T17:26:16.425Z,32.87
2018-04-18T17:28:43.062Z,32.65
2018-04-18T17:31:09.694Z,32.74
2018-04-18T17:33:36.409Z,32.73
2018-04-18T17:36:03.007Z,32.75
2018-04-18T17:38:29.647Z,32.78
2018-04-18T17:40:56.349Z,32.80
2018-04-18T17:43:23.013Z,32.79
2018-04-18T17:45:49.686Z,32.88
2018-04-18T17:48:16.324Z,32.89
2018-04-18T17:50:45.081Z,32.92
2018-04-18T17:53:11.761Z,32.92
2018-04-18T17:55:38.465Z,32.88
2018-04-18T17:58:05.179Z,32.95
2018-04-18T18:00:31.803Z,32.97
2018-04-18T18:02:58.478Z,32.99
2018-04-18T18:05:25.117Z,33.03
2018-04-18T18:07:51.747Z,33.02
2018-04-18T18:10:18.353Z,33.08
2018-04-18T18:12:45.068Z,33.12
2018-04-18T18:15:11.705Z,33.09
2018-04-18T18:17:38.349Z,33.15
2018-04-18T18:20:04.943Z,33.15
2018-04-18T18:22:31.623Z,33.22
2018-04-18T18:24:58.265Z,33.25
2018-04-18T18:27:24.897Z,33.25
2018-04-18T18:29:51.536Z,33.28
2018-04-18T18:32:18.139Z,33.33
2018-04-18T18:34:44.778Z,33.38
2018-04-18T18:37:11.447Z,33.34
2018-04-18T18:39:38.090Z,33.44
2018-04-18T18:42:04.763Z,33.45
2018-04-18T18:44:31.431Z,33.45
2018-04-18T18:46:58.059Z,33.51
2018-04-18T18:49:24.698Z,33.59
2018-04-18T18:51:51.292Z,33.63
2018-04-18T18:54:17.968Z,33.64
2018-04-18T18:56:44.634Z,33.67
2018-04-18T18:59:11.308Z,33.74
2018-04-18T19:01:37.903Z,33.76
2018-04-18T19:04:04.575Z,33.82
2018-04-18T19:06:31.171Z,33.86
2018-04-18T19:08:57.861Z,33.91
2018-04-18T19:11:24.493Z,33.95
2018-04-18T19:13:51.151Z,33.99
2018-04-18T19:16:17.790Z,34.05
2018-04-18T19:18:44.462Z,34.06
2018-04-18T19:21:11.135Z,34.08
2018-04-18T19:23:37.771Z,34.12
2018-04-18T19:26:04.433Z,34.14
2018-04-18T19:28:31.076Z,34.17
2018-04-18T19:30:57.708Z,34.26
2018-04-18T19:33:24.345Z,34.27
2018-04-18T19:35:50.991Z,34.33
2018-04-18T19:38:17.632Z,34.35
2018-04-18T19:40:44.277Z,34.39
2018-04-18T19:43:10.948Z,34.41
2018-04-18T19:45:37.793Z,34.41
2018-04-18T19:48:04.477Z,34.48
2018-04-18T19:50:31.111Z,34.43
2018-04-18T19:52:57.740Z,34.43
2018-04-18T19:55:24.392Z,34.49
2018-04-18T19:57:51.026Z,34.51
2018-04-18T20:00:17.666Z,34.55
2018-04-18T20:02:44.326Z,34.56
2018-04-18T20:05:10.988Z,34.57
2018-04-18T20:07:37.570Z,34.62
2018-04-18T20:10:04.254Z,34.62
2018-04-18T20:12:30.893Z,34.64
2018-04-18T20:14:57.595Z,34.62
2018-04-18T20:17:24.229Z,34.72
2018-04-18T20:19:51.076Z,34.62
2018-04-18T20:22:17.718Z,34.70
2018-04-18T20:24:44.333Z,34.72
2018-04-18T20:27:11.088Z,34.76
2018-04-18T20:29:37.755Z,34.77
2018-04-18T20:32:04.421Z,34.77
2018-04-18T20:34:31.100Z,34.77
2018-04-18T20:36:57.760Z,34.83
2018-04-18T20:39:24.505Z,34.79
2018-04-18T20:41:51.175Z,34.74
2018-04-18T20:44:17.925Z,34.76
2018-04-18T20:46:44.569Z,34.84
2018-04-18T20:49:11.237Z,34.88
2018-04-18T20:51:37.901Z,34.88
2018-04-18T20:54:04.610Z,34.90
2018-04-18T20:56:31.239Z,34.92
2018-04-18T20:58:57.911Z,34.81
2018-04-18T21:01:24.579Z,34.97
2018-04-18T21:03:51.251Z,34.87
2018-04-18T21:06:17.919Z,34.90
2018-04-18T21:08:44.590Z,34.88
2018-04-18T21:11:11.253Z,34.83
2018-04-18T21:13:37.976Z,34.88
2018-04-18T21:16:04.581Z,34.93
2018-04-18T21:18:31.325Z,34.93
2018-04-18T21:20:57.984Z,34.93
2018-04-18T21:23:24.637Z,34.96
2018-04-18T21:25:51.333Z,34.94
2018-04-18T21:28:17.973Z,34.88
2018-04-18T21:30:44.681Z,34.89
2018-04-18T21:33:11.358Z,34.92
2018-04-18T21:35:38.014Z,34.99
2018-04-18T21:38:04.723Z,34.88
2018-04-18T21:40:31.396Z,34.86
2018-04-18T21:42:58.139Z,34.87
2018-04-18T21:45:24.770Z,34.89
2018-04-18T21:47:51.519Z,34.88
2018-04-18T21:50:18.229Z,34.91
2018-04-18T21:52:44.911Z,35.00
2018-04-18T21:55:11.620Z,34.92
2018-04-18T21:57:38.361Z,34.90
2018-04-18T22:00:05.064Z,34.98
2018-04-18T22:02:31.767Z,34.99
2018-04-18T22:04:58.469Z,34.90
2018-04-18T22:07:25.095Z,34.95
2018-04-18T22:09:51.817Z,34.96
2018-04-18T22:12:18.561Z,34.97
2018-04-18T22:14:45.289Z,34.94
2018-04-18T22:17:11.954Z,34.79
2018-04-18T22:19:38.653Z,34.82
2018-04-18T22:22:05.292Z,34.88
2018-04-18T22:24:31.993Z,34.88
2018-04-18T22:26:58.693Z,34.85
2018-04-18T22:29:25.424Z,34.92
2018-04-18T22:31:52.054Z,34.91
2018-04-18T22:34:18.718Z,34.76
2018-04-18T22:36:45.389Z,34.82
2018-04-18T22:39:12.128Z,34.81
2018-04-18T22:41:38.807Z,34.83
2018-04-18T22:44:05.505Z,34.80
2018-04-18T22:46:32.227Z,34.82
2018-04-18T22:48:58.857Z,34.82
2018-04-18T22:51:25.517Z,34.89
2018-04-18T22:53:52.234Z,34.86
2018-04-18T22:56:18.932Z,34.89
2018-04-18T22:58:45.656Z,34.90
2018-04-18T23:01:12.290Z,34.83
2018-04-18T23:03:38.958Z,34.87
2018-04-18T23:06:05.633Z,34.84
2018-04-18T23:08:32.348Z,34.81
2018-04-18T23:10:59.007Z,34.85
2018-04-18T23:13:25.733Z,34.87
2018-04-18T23:15:52.403Z,34.89
2018-04-18T23:18:19.062Z,34.80
2018-04-18T23:20:45.739Z,34.88
2018-04-18T23:23:12.475Z,34.91
2018-04-18T23:25:39.150Z,34.86
2018-04-18T23:28:05.816Z,34.90
2018-04-18T23:30:32.557Z,34.94
2018-04-18T23:32:59.216Z,34.88
2018-04-18T23:35:25.844Z,34.79
2018-04-18T23:37:52.524Z,34.92
2018-04-18T23:40:19.198Z,34.80
2018-04-18T23:42:46.020Z,34.96
2018-04-18T23:45:12.652Z,34.86
2018-04-18T23:47:39.319Z,34.80
2018-04-18T23:50:06.027Z,34.92
2018-04-18T23:52:32.787Z,34.81
2018-04-18T23:54:59.455Z,34.88
2018-04-18T23:57:26.119Z,34.86
2018-04-18T23:59:52.798Z,34.79
